createdAt,value
2022-08-17T00:00:42.736Z,61.70
2022-08-17T00:03:24.592Z,61.73
2022-08-17T00:06:00.159Z,60.71
2022-08-17T00:08:34.784Z,60.69
2022-08-17T00:11:06.272Z,61.00
2022-08-17T00:13:38.251Z,60.70
2022-08-17T00:16:17.047Z,60.33
2022-08-17T00:18:58.160Z,60.55
2022-08-17T00:21:59.932Z,60.47
2022-08-17T00:24:22.959Z,60.79
2022-08-17T00:26:50.441Z,60.90
2022-08-17T00:29:20.033Z,61.20
2022-08-17T00:31:48.689Z,60.83
2022-08-17T00:34:16.382Z,60.77
2022-08-17T00:36:43.922Z,60.00
2022-08-17T00:39:11.672Z,60.19
2022-08-17T00:41:42.096Z,60.28
2022-08-17T00:44:12.215Z,60.08
2022-08-17T00:46:42.778Z,60.95
2022-08-17T00:49:12.660Z,61.57
2022-08-17T00:51:49.019Z,61.05
2022-08-17T00:54:24.194Z,61.04
2022-08-17T00:56:58.819Z,60.64
2022-08-17T00:59:31.081Z,60.93
2022-08-17T01:01:59.687Z,60.61
2022-08-17T01:04:30.196Z,60.47
2022-08-17T01:06:59.028Z,60.24
2022-08-17T01:09:26.993Z,60.75
2022-08-17T01:11:54.853Z,60.82
2022-08-17T01:14:25.177Z,59.71
2022-08-17T01:16:55.763Z,59.63
2022-08-17T01:19:30.117Z,60.08
2022-08-17T01:22:09.459Z,59.80
2022-08-17T01:24:43.365Z,60.25
2022-08-17T01:27:13.730Z,60.11
2022-08-17T01:29:46.538Z,60.27
2022-08-17T01:32:14.847Z,59.91
2022-08-17T01:34:43.894Z,59.04
2022-08-17T01:37:20.121Z,59.39
2022-08-17T01:39:57.622Z,59.77
2022-08-17T01:42:43.239Z,59.94
2022-08-17T01:45:43.054Z,60.62
2022-08-17T01:48:11.485Z,59.49
2022-08-17T01:50:42.342Z,58.73
2022-08-17T01:53:18.299Z,59.56
2022-08-17T01:55:48.660Z,59.65
2022-08-17T01:58:17.150Z,60.10
2022-08-17T02:01:00.466Z,59.60
2022-08-17T02:03:30.056Z,59.62
2022-08-17T02:05:58.150Z,59.23
2022-08-17T02:08:38.969Z,59.50
2022-08-17T02:11:16.999Z,60.13
2022-08-17T02:13:47.253Z,59.99
2022-08-17T02:16:22.611Z,59.85
2022-08-17T02:18:50.286Z,59.80
2022-08-17T02:21:17.778Z,59.27
2022-08-17T02:23:48.882Z,60.40
2022-08-17T02:26:25.441Z,59.42
2022-08-17T02:28:54.863Z,60.19
2022-08-17T02:31:22.314Z,60.69
2022-08-17T02:34:00.269Z,59.57
2022-08-17T02:36:35.764Z,58.15
2022-08-17T02:39:06.289Z,57.30
2022-08-17T02:41:34.128Z,57.71
2022-08-17T02:44:01.898Z,58.15
2022-08-17T02:46:31.093Z,58.71
2022-08-17T02:49:00.177Z,58.94
2022-08-17T02:51:28.146Z,58.51
2022-08-17T02:54:39.161Z,58.56
2022-08-17T02:56:43.397Z,59.82
2022-08-17T02:59:10.873Z,59.71
2022-08-17T03:01:38.636Z,59.59
2022-08-17T03:04:06.381Z,60.88
2022-08-17T03:06:34.113Z,61.25
2022-08-17T03:09:01.590Z,61.14
2022-08-17T03:11:29.023Z,62.03
2022-08-17T03:13:56.924Z,61.42
2022-08-17T03:16:24.357Z,60.66
2022-08-17T03:18:51.957Z,59.33
2022-08-17T03:21:19.418Z,60.14
2022-08-17T03:23:46.892Z,60.30
2022-08-17T03:26:22.056Z,61.13
2022-08-17T03:28:49.644Z,60.04
2022-08-17T03:31:18.457Z,61.91
2022-08-17T03:33:46.054Z,62.06
2022-08-17T03:36:13.744Z,61.86
2022-08-17T03:38:41.648Z,61.90
2022-08-17T03:41:09.390Z,62.15
2022-08-17T03:43:36.805Z,62.02
2022-08-17T03:46:28.386Z,62.45
2022-08-17T03:49:23.699Z,62.39
2022-08-17T03:52:10.172Z,64.26
2022-08-17T03:54:56.674Z,64.21
2022-08-17T03:57:24.762Z,64.40
2022-08-17T03:59:53.348Z,63.62
2022-08-17T04:02:33.947Z,63.68
2022-08-17T04:05:01.817Z,63.72
2022-08-17T04:07:31.550Z,64.26
2022-08-17T04:09:59.593Z,64.10
2022-08-17T04:12:31.716Z,63.27
2022-08-17T04:14:59.879Z,62.91
2022-08-17T04:17:29.273Z,62.29
2022-08-17T04:19:57.193Z,61.83
2022-08-17T04:22:32.069Z,62.72
2022-08-17T04:25:10.129Z,62.69
2022-08-17T04:27:37.652Z,61.74
2022-08-17T04:30:07.407Z,60.44
2022-08-17T04:33:09.883Z,60.70
2022-08-17T04:35:47.813Z,60.78
2022-08-17T04:38:19.034Z,61.03
2022-08-17T04:41:06.194Z,61.11
2022-08-17T04:43:35.112Z,62.09
2022-08-17T04:46:05.481Z,61.94
2022-08-17T04:48:47.840Z,62.25
2022-08-17T04:51:24.823Z,62.88
2022-08-17T04:53:55.804Z,63.82
2022-08-17T04:56:25.887Z,64.58
2022-08-17T04:58:56.529Z,63.36
2022-08-17T05:01:26.113Z,65.54
2022-08-17T05:03:56.274Z,64.86
2022-08-17T05:06:24.048Z,64.80
2022-08-17T05:08:51.967Z,65.07
2022-08-17T05:11:19.721Z,65.60
2022-08-17T05:13:50.227Z,66.14
2022-08-17T05:16:20.549Z,67.23
2022-08-17T05:18:48.280Z,66.30
2022-08-17T05:21:16.507Z,66.23
2022-08-17T05:23:44.973Z,66.03
2022-08-17T05:26:26.283Z,66.71
2022-08-17T05:29:00.514Z,67.38
2022-08-17T05:31:31.189Z,68.81
2022-08-17T05:33:59.527Z,68.59
2022-08-17T05:36:38.096Z,67.99
2022-08-17T05:39:16.232Z,68.13
2022-08-17T05:41:47.685Z,67.50
2022-08-17T05:44:16.292Z,67.69
2022-08-17T05:46:48.776Z,65.86
2022-08-17T05:49:19.240Z,65.91
2022-08-17T05:51:58.530Z,64.19
2022-08-17T05:54:47.843Z,65.92
2022-08-17T05:57:26.977Z,66.36
2022-08-17T05:59:54.618Z,65.15
2022-08-17T06:02:51.963Z,64.73
2022-08-17T06:05:30.861Z,64.17
2022-08-17T06:08:25.693Z,64.05
2022-08-17T06:11:06.710Z,64.78
2022-08-17T06:13:46.439Z,63.89
2022-08-17T06:16:28.256Z,64.50
2022-08-17T06:19:24.207Z,64.01
2022-08-17T06:21:54.896Z,62.68
2022-08-17T06:24:28.617Z,62.79
2022-08-17T06:27:07.555Z,64.28
2022-08-17T06:29:44.794Z,63.17
2022-08-17T06:32:14.746Z,61.99
2022-08-17T06:34:45.206Z,59.77
2022-08-17T06:37:34.291Z,58.73
2022-08-17T06:40:04.872Z,59.62
2022-08-17T06:43:06.565Z,58.99
2022-08-17T06:45:31.658Z,59.12
2022-08-17T06:48:05.802Z,58.28
2022-08-17T06:50:47.747Z,59.41
2022-08-17T06:53:31.802Z,59.27
2022-08-17T06:56:08.750Z,61.76
2022-08-17T06:58:40.295Z,61.71
2022-08-17T07:01:15.429Z,58.76
2022-08-17T07:03:49.894Z,57.35
2022-08-17T07:06:22.977Z,57.20
2022-08-17T07:08:55.596Z,56.22
2022-08-17T07:11:36.306Z,57.32
2022-08-17T07:14:18.933Z,57.76
2022-08-17T07:16:50.835Z,56.46
2022-08-17T07:19:22.672Z,54.07
2022-08-17T07:22:03.854Z,53.93
2022-08-17T07:24:37.319Z,55.35
2022-08-17T07:27:17.352Z,57.43
2022-08-17T07:29:58.912Z,57.10
2022-08-17T07:32:36.008Z,56.64
2022-08-17T07:35:23.124Z,55.74
2022-08-17T07:38:25.349Z,55.79
2022-08-17T07:40:57.713Z,55.70
2022-08-17T07:43:32.112Z,54.20
2022-08-17T07:46:21.316Z,52.78
2022-08-17T07:48:52.889Z,53.41
2022-08-17T07:51:34.043Z,53.32
2022-08-17T07:54:22.644Z,54.39
2022-08-17T07:57:13.103Z,54.88
2022-08-17T08:00:01.246Z,55.54
2022-08-17T08:02:38.701Z,55.22
2022-08-17T08:05:49.493Z,54.98
2022-08-17T08:08:24.692Z,53.47
2022-08-17T08:11:07.327Z,53.41
2022-08-17T08:13:42.406Z,52.42
2022-08-17T08:16:13.364Z,53.19
2022-08-17T08:18:54.089Z,53.65
2022-08-17T08:21:44.809Z,50.36
2022-08-17T08:24:15.076Z,50.12
2022-08-17T08:27:01.070Z,48.60
2022-08-17T08:30:07.262Z,49.45
2022-08-17T08:32:50.293Z,50.01
2022-08-17T08:35:38.163Z,49.29
2022-08-17T08:38:45.265Z,48.17
2022-08-17T08:41:21.212Z,46.86
2022-08-17T08:43:58.215Z,45.53
2022-08-17T08:46:31.975Z,44.35
2022-08-17T08:49:33.847Z,43.37
2022-08-17T08:52:34.189Z,45.21
2022-08-17T08:55:20.202Z,44.97
2022-08-17T08:58:02.804Z,44.19
2022-08-17T09:00:35.902Z,43.29
2022-08-17T09:03:36.514Z,43.16
2022-08-17T09:06:38.532Z,42.10
2022-08-17T09:09:50.757Z,41.33
2022-08-17T09:12:34.649Z,41.54
2022-08-17T09:15:27.788Z,40.71
2022-08-17T09:18:59.185Z,41.41
2022-08-17T09:21:02.298Z,40.76
2022-08-17T09:24:04.861Z,39.98
2022-08-17T09:26:39.477Z,39.84
2022-08-17T09:29:12.958Z,39.39
2022-08-17T09:32:03.756Z,39.42
2022-08-17T09:34:47.000Z,39.13
2022-08-17T09:37:37.465Z,39.83
2022-08-17T09:40:18.375Z,40.22
2022-08-17T09:43:04.298Z,39.03
2022-08-17T09:45:41.138Z,38.86
2022-08-17T09:48:20.840Z,38.44
2022-08-17T09:51:04.826Z,37.25
2022-08-17T09:53:37.167Z,37.48
2022-08-17T09:56:24.167Z,37.30
2022-08-17T09:59:08.694Z,37.55
2022-08-17T10:01:47.524Z,37.07
2022-08-17T10:04:30.605Z,37.52
2022-08-17T10:07:13.953Z,36.74
2022-08-17T10:10:21.145Z,35.94
2022-08-17T10:13:34.106Z,36.61
2022-08-17T10:16:41.200Z,36.74
2022-08-17T10:19:47.130Z,36.41
2022-08-17T10:22:53.258Z,37.06
2022-08-17T10:25:54.657Z,37.98
2022-08-17T10:28:30.211Z,38.10
2022-08-17T10:31:33.182Z,37.65
2022-08-17T10:33:53.481Z,37.88
2022-08-17T10:36:37.912Z,38.14
2022-08-17T10:39:20.210Z,38.71
2022-08-17T10:41:52.695Z,38.39
2022-08-17T10:44:40.358Z,38.54
2022-08-17T10:47:15.181Z,39.14
2022-08-17T10:49:53.907Z,38.67
2022-08-17T10:52:27.884Z,38.30
2022-08-17T10:54:57.897Z,37.37
2022-08-17T10:57:44.966Z,37.55
2022-08-17T11:00:18.770Z,38.91
2022-08-17T11:02:54.986Z,39.27
2022-08-17T11:05:47.369Z,38.22
2022-08-17T11:08:36.859Z,38.76
2022-08-17T11:11:35.987Z,38.02
2022-08-17T11:14:17.170Z,37.50
2022-08-17T11:17:07.857Z,38.14
2022-08-17T11:19:54.423Z,38.40
2022-08-17T11:22:56.721Z,39.58
2022-08-17T11:25:45.143Z,39.27
2022-08-17T11:28:52.482Z,40.05
2022-08-17T11:31:40.202Z,40.37
2022-08-17T11:34:21.691Z,39.86
2022-08-17T11:37:00.427Z,40.05
2022-08-17T11:39:37.719Z,40.43
2022-08-17T11:42:37.519Z,40.82
2022-08-17T11:45:19.512Z,40.79
2022-08-17T11:48:50.979Z,41.19
2022-08-17T11:51:42.147Z,42.13
2022-08-17T11:54:33.608Z,42.14
2022-08-17T11:57:27.667Z,42.06
2022-08-17T11:59:58.535Z,40.95
2022-08-17T12:02:31.609Z,41.71
2022-08-17T12:05:12.468Z,43.19
2022-08-17T12:08:06.009Z,43.88
2022-08-17T12:10:39.466Z,44.62
2022-08-17T12:13:13.273Z,43.78
2022-08-17T12:15:49.745Z,43.08
2022-08-17T12:18:37.639Z,43.64
2022-08-17T12:21:37.411Z,42.49
2022-08-17T12:24:29.292Z,43.18
2022-08-17T12:27:01.013Z,42.35
2022-08-17T12:29:35.712Z,42.67
2022-08-17T12:32:13.367Z,42.69
2022-08-17T12:34:43.690Z,41.16
2022-08-17T12:37:16.548Z,40.88
2022-08-17T12:40:03.448Z,41.26
2022-08-17T12:42:39.396Z,40.76
2022-08-17T12:45:21.595Z,40.91
2022-08-17T12:47:49.529Z,41.20
2022-08-17T12:50:28.955Z,41.67
2022-08-17T12:53:01.954Z,41.68
2022-08-17T12:55:36.982Z,40.92
2022-08-17T12:58:05.165Z,41.29
2022-08-17T13:00:35.826Z,41.33
2022-08-17T13:03:07.799Z,41.87
2022-08-17T13:05:53.781Z,41.06
2022-08-17T13:08:45.216Z,40.99
2022-08-17T13:11:19.236Z,41.28
2022-08-17T13:13:51.461Z,40.55
2022-08-17T13:16:22.722Z,41.08
2022-08-17T13:18:50.226Z,40.42
2022-08-17T13:21:22.393Z,41.19
2022-08-17T13:24:11.113Z,40.12
2022-08-17T13:26:54.751Z,39.95
2022-08-17T13:29:30.790Z,40.52
2022-08-17T13:32:04.740Z,41.61
2022-08-17T13:35:12.245Z,41.73
2022-08-17T13:37:36.554Z,41.48
2022-08-17T13:40:10.033Z,40.90
2022-08-17T13:42:51.681Z,40.83
2022-08-17T13:45:39.612Z,40.12
2022-08-17T13:48:30.421Z,40.86
2022-08-17T13:50:58.035Z,41.86
2022-08-17T13:53:26.010Z,41.37
2022-08-17T13:55:56.803Z,41.17
2022-08-17T13:58:32.250Z,40.53
2022-08-17T14:01:31.734Z,40.55
2022-08-17T14:04:02.088Z,40.52
2022-08-17T14:06:53.396Z,40.49
2022-08-17T14:09:26.589Z,41.09
2022-08-17T14:11:56.809Z,41.62
2022-08-17T14:14:24.992Z,41.23
2022-08-17T14:16:53.606Z,41.33
2022-08-17T14:19:24.307Z,39.81
2022-08-17T14:21:59.058Z,40.39
2022-08-17T14:24:32.845Z,40.89
2022-08-17T14:27:03.518Z,39.98
2022-08-17T14:29:34.249Z,41.13
2022-08-17T14:32:10.017Z,41.28
2022-08-17T14:34:37.486Z,40.82
2022-08-17T14:37:05.176Z,41.42
2022-08-17T14:39:32.918Z,42.08
2022-08-17T14:42:01.407Z,40.96
2022-08-17T14:44:29.951Z,40.67
2022-08-17T14:46:57.356Z,41.55
2022-08-17T14:49:26.065Z,40.60
2022-08-17T14:51:53.997Z,41.40
2022-08-17T14:54:28.866Z,41.04
2022-08-17T14:57:23.070Z,41.07
2022-08-17T14:59:55.204Z,40.82
2022-08-17T15:02:30.411Z,40.04
2022-08-17T15:05:04.010Z,41.70
2022-08-17T15:07:31.846Z,40.33
2022-08-17T15:10:01.635Z,39.20
2022-08-17T15:12:33.386Z,40.12
2022-08-17T15:15:05.037Z,38.59
2022-08-17T15:17:44.282Z,38.18
2022-08-17T15:20:20.770Z,39.02
2022-08-17T15:22:55.653Z,37.61
2022-08-17T15:25:25.938Z,35.10
2022-08-17T15:27:55.891Z,35.42
2022-08-17T15:30:26.003Z,35.99
2022-08-17T15:32:55.175Z,35.73
2022-08-17T15:35:29.838Z,36.19
2022-08-17T15:38:10.536Z,36.99
2022-08-17T15:40:44.918Z,37.17
2022-08-17T15:43:28.305Z,35.58
2022-08-17T15:46:06.443Z,35.66
2022-08-17T15:48:41.833Z,36.33
2022-08-17T15:51:31.129Z,36.83
2022-08-17T15:54:04.467Z,37.64
2022-08-17T15:56:47.017Z,37.16
2022-08-17T15:59:14.552Z,36.18
2022-08-17T16:03:15.059Z,36.25
2022-08-17T16:04:31.600Z,35.89
2022-08-17T16:07:00.085Z,36.99
2022-08-17T16:09:28.296Z,38.17
2022-08-17T16:11:56.466Z,37.19
2022-08-17T16:14:32.554Z,39.49
2022-08-17T16:17:04.585Z,40.59
2022-08-17T16:19:34.350Z,41.34
2022-08-17T16:22:02.610Z,41.44
2022-08-17T16:24:31.872Z,41.66
2022-08-17T16:26:59.765Z,42.04
2022-08-17T16:29:27.907Z,42.25
2022-08-17T16:31:56.497Z,41.30
2022-08-17T16:34:24.685Z,41.32
2022-08-17T16:36:56.193Z,41.74
2022-08-17T16:39:26.736Z,43.12
2022-08-17T16:41:56.019Z,42.81
2022-08-17T16:44:25.862Z,43.05
2022-08-17T16:46:53.716Z,43.27
2022-08-17T16:49:25.781Z,45.37
2022-08-17T16:52:09.700Z,46.37
2022-08-17T16:54:40.673Z,48.09
2022-08-17T16:57:08.220Z,48.98
2022-08-17T16:59:41.853Z,49.92
2022-08-17T17:02:14.530Z,50.10
2022-08-17T17:04:57.582Z,50.42
2022-08-17T17:07:55.698Z,50.48
2022-08-17T17:10:33.554Z,50.57
2022-08-17T17:13:04.361Z,51.08
2022-08-17T17:15:47.347Z,50.79
2022-08-17T17:18:16.605Z,50.71
2022-08-17T17:20:55.965Z,50.38
2022-08-17T17:23:35.811Z,51.29
2022-08-17T17:26:16.508Z,51.10
2022-08-17T17:29:01.365Z,51.13
2022-08-17T17:31:38.461Z,51.46
2022-08-17T17:34:10.846Z,51.08
2022-08-17T17:36:40.801Z,50.72
2022-08-17T17:39:23.136Z,51.98
2022-08-17T17:42:02.745Z,52.37
2022-08-17T17:44:38.238Z,54.46
2022-08-17T17:47:06.136Z,56.97
2022-08-17T17:49:37.155Z,56.74
2022-08-17T17:52:30.136Z,55.79
2022-08-17T17:54:57.973Z,55.94
2022-08-17T17:57:40.633Z,55.59
2022-08-17T18:00:16.564Z,57.68
2022-08-17T18:02:53.892Z,60.55
2022-08-17T18:05:44.334Z,69.48
2022-08-17T18:08:34.884Z,74.79
2022-08-17T18:11:25.004Z,76.83
2022-08-17T18:14:04.804Z,81.91
2022-08-17T18:16:33.024Z,89.55
2022-08-17T18:19:00.884Z,92.23
2022-08-17T18:21:44.547Z,92.05
2022-08-17T18:24:16.289Z,91.32
2022-08-17T18:26:56.663Z,89.86
2022-08-17T18:29:31.545Z,89.26
2022-08-17T18:32:17.707Z,86.20
2022-08-17T18:34:48.984Z,85.63
2022-08-17T18:37:42.792Z,88.75
2022-08-17T18:40:17.405Z,85.72
2022-08-17T18:42:46.547Z,85.51
2022-08-17T18:45:35.585Z,86.87
2022-08-17T18:48:03.564Z,85.82
2022-08-17T18:50:41.468Z,85.88
2022-08-17T18:53:39.942Z,87.28
2022-08-17T18:56:33.063Z,88.59
2022-08-17T18:59:18.712Z,88.62
2022-08-17T19:02:27.250Z,86.51
2022-08-17T19:05:09.053Z,83.87
2022-08-17T19:07:46.255Z,82.71
2022-08-17T19:10:23.528Z,82.74
2022-08-17T19:13:12.307Z,80.23
2022-08-17T19:16:14.423Z,78.92
2022-08-17T19:18:48.892Z,77.68
2022-08-17T19:21:40.490Z,77.08
2022-08-17T19:24:19.752Z,77.14
2022-08-17T19:27:01.212Z,75.33
2022-08-17T19:29:43.281Z,75.57
2022-08-17T19:32:12.742Z,72.43
2022-08-17T19:34:43.176Z,70.70
2022-08-17T19:37:35.355Z,70.72
2022-08-17T19:40:51.699Z,71.42
2022-08-17T19:43:29.119Z,71.95
2022-08-17T19:46:07.561Z,71.83
2022-08-17T19:48:38.294Z,71.91
2022-08-17T19:51:21.649Z,72.98
2022-08-17T19:54:04.823Z,73.36
2022-08-17T19:56:44.022Z,73.36
2022-08-17T19:59:58.783Z,71.29
2022-08-17T20:02:44.394Z,73.57
2022-08-17T20:05:21.589Z,71.35
2022-08-17T20:07:55.600Z,70.32
2022-08-17T20:10:47.265Z,72.55
2022-08-17T20:13:35.245Z,72.58
2022-08-17T20:16:04.251Z,71.22
2022-08-17T20:18:34.583Z,71.55
2022-08-17T20:21:21.243Z,73.04
2022-08-17T20:24:18.380Z,72.86
2022-08-17T20:27:11.243Z,71.39
2022-08-17T20:30:03.454Z,72.51
2022-08-17T20:32:53.127Z,69.76
2022-08-17T20:35:23.685Z,68.12
2022-08-17T20:37:55.496Z,69.17
2022-08-17T20:40:30.396Z,69.16
2022-08-17T20:42:59.788Z,68.99
2022-08-17T20:45:58.791Z,71.21
2022-08-17T20:48:38.682Z,70.97
2022-08-17T20:51:27.539Z,70.87
2022-08-17T20:53:55.032Z,70.89
2022-08-17T20:56:44.380Z,72.05
2022-08-17T20:59:21.315Z,69.99
2022-08-17T21:02:18.128Z,72.02
2022-08-17T21:05:00.980Z,71.13
2022-08-17T21:07:43.533Z,71.97
2022-08-17T21:10:15.917Z,71.62
2022-08-17T21:12:53.994Z,72.75
2022-08-17T21:15:31.095Z,72.00
2022-08-17T21:18:11.987Z,73.28
2022-08-17T21:20:49.761Z,72.81
2022-08-17T21:23:40.394Z,73.07
2022-08-17T21:26:31.192Z,73.28
2022-08-17T21:29:31.827Z,69.25
2022-08-17T21:32:03.370Z,69.52
2022-08-17T21:34:33.745Z,72.43
2022-08-17T21:37:20.044Z,72.60
2022-08-17T21:39:56.773Z,71.79
2022-08-17T21:42:37.439Z,74.47
2022-08-17T21:45:21.607Z,75.95
2022-08-17T21:48:08.719Z,75.26
2022-08-17T21:50:36.825Z,73.99
2022-08-17T21:53:05.651Z,73.93
2022-08-17T21:55:36.082Z,73.40
2022-08-17T21:58:19.248Z,74.14
2022-08-17T22:00:46.984Z,74.27
2022-08-17T22:03:26.244Z,75.34
2022-08-17T22:05:53.938Z,76.02
2022-08-17T22:08:24.819Z,76.81
2022-08-17T22:11:01.360Z,77.10
2022-08-17T22:13:29.670Z,78.16
2022-08-17T22:16:27.770Z,78.87
2022-08-17T22:18:54.415Z,78.47
2022-08-17T22:21:22.579Z,78.59
2022-08-17T22:24:05.204Z,79.35
2022-08-17T22:27:03.520Z,80.04
2022-08-17T22:29:54.311Z,81.32
2022-08-17T22:32:33.649Z,80.49
2022-08-17T22:35:19.248Z,81.17
2022-08-17T22:37:46.787Z,82.49
2022-08-17T22:40:26.405Z,81.40
2022-08-17T22:42:54.142Z,81.39
2022-08-17T22:45:24.286Z,80.89
2022-08-17T22:47:56.926Z,81.67
2022-08-17T22:50:28.094Z,80.69
2022-08-17T22:53:31.150Z,80.39
2022-08-17T22:56:17.602Z,80.32
2022-08-17T22:59:13.327Z,80.24
2022-08-17T23:01:42.201Z,82.07
2022-08-17T23:04:15.998Z,81.71
2022-08-17T23:06:43.688Z,82.07
2022-08-17T23:09:11.541Z,82.45
2022-08-17T23:11:49.692Z,81.77
2022-08-17T23:14:20.464Z,80.74
2022-08-17T23:16:50.231Z,79.03
2022-08-17T23:19:20.719Z,79.85
2022-08-17T23:21:51.063Z,80.03
2022-08-17T23:24:25.153Z,79.96
2022-08-17T23:26:53.797Z,80.20
2022-08-17T23:29:21.599Z,80.13
2022-08-17T23:31:51.066Z,79.51
2022-08-17T23:34:19.025Z,80.90
2022-08-17T23:36:50.727Z,80.54
2022-08-17T23:39:24.567Z,80.69
2022-08-17T23:41:57.333Z,80.82
2022-08-17T23:44:25.341Z,80.59
2022-08-17T23:46:53.473Z,79.51
2022-08-17T23:49:21.204Z,78.93
2022-08-17T23:51:49.032Z,78.63
2022-08-17T23:54:24.351Z,78.10
2022-08-17T23:56:52.185Z,78.25
2022-08-17T23:59:21.601Z,79.02
